Constantin S — V2BM7 — position and weather

sailwx.info

Track history (hours):
 
Tides and Currents Weather Stations Pressure Air Temp Water Temp Dewpoint Dewpoint Depression Visibility Wind Speed Wind Dir Waves Ship Positions

Constantin S

Last reported at 2017-Nov-12 04:46 UTC. Time now 2017-Nov-23 18:37 UTC.
Position N 10°17' W 075°45'.
Warning: this ship's position is 11 days out of date.

Length 200 m; draft 9.1 m.

Type: Cargo ship. MMSI: 304872000.

Date/timePositionNaut miles runAvg speedWind from/ knotsBaromVisibWave heightAir tempDewpointWater temp
2017-Nov-12 04:46N 10°17' W 075°45'519.4
2017-Nov-12 04:30N 10°19' W 075°40'612.6
2017-Nov-12 04:00N 10°19' W 075°33'5 2.7
2017-Nov-12 02:14N 10°24' W 075°32'0 0.0
2017-Nov-12 01:50N 10°24' W 075°32'0 0.0
2017-Nov-12 01:26N 10°24' W 075°32'0 0.0
2017-Nov-12 00:56N 10°24' W 075°32'0 0.0
2017-Nov-12 00:14N 10°24' W 075°32'0 0.0
2017-Nov-11 23:56N 10°24' W 075°32'0 0.0
2017-Nov-11 23:26N 10°24' W 075°32'0 0.0
2017-Nov-11 22:56N 10°24' W 075°32'0 0.0
2017-Nov-11 22:20N 10°24' W 075°32'0 0.0
2017-Nov-11 21:56N 10°24' W 075°32'0 0.0
2017-Nov-11 21:14N 10°24' W 075°32'0 0.0
2017-Nov-11 20:56N 10°24' W 075°32'0 0.0
2017-Nov-11 20:26N 10°24' W 075°32'0 0.0
2017-Nov-11 19:59N 10°24' W 075°32'0 0.0
2017-Nov-11 19:26N 10°24' W 075°32'0 0.0
2017-Nov-11 18:56N 10°24' W 075°32'0 0.0
2017-Nov-11 18:29N 10°24' W 075°32'0 0.0
2017-Nov-11 17:56N 10°24' W 075°32'0 0.0
2017-Nov-11 17:26N 10°24' W 075°32'0 0.0
2017-Nov-11 16:53N 10°24' W 075°32'0 0.0
2017-Nov-11 16:20N 10°24' W 075°32'0 0.0
2017-Nov-11 15:56N 10°24' W 075°32'0 0.0
2017-Nov-11 15:29N 10°24' W 075°32'0 0.0
2017-Nov-11 14:56N 10°24' W 075°32'0 0.0
2017-Nov-11 14:26N 10°24' W 075°32'0 0.0
2017-Nov-11 13:56N 10°24' W 075°32'0 0.0
2017-Nov-11 13:26N 10°24' W 075°32'0 0.0
2017-Nov-11 12:50N 10°24' W 075°32'0 0.0
2017-Nov-11 12:26N 10°24' W 075°32'1 2.2
2017-Nov-11 12:00N 10°23' W 075°33'5 9.5
2017-Nov-11 11:30N 10°19' W 075°35'5 9.9
2017-Nov-11 11:00N 10°20' W 075°40'713.8
2017-Nov-11 10:31N 10°23' W 075°46'  
2017-Nov-03 23:22N 29°21' W 094°46'911.2
2017-Nov-03 22:32N 29°29' W 094°52'012.3
2017-Nov-03 22:30N 29°29' W 094°52'611.9
2017-Nov-03 22:00N 29°34' W 094°55'611.6
2017-Nov-03 21:30N 29°39' W 094°58'5 9.9
2017-Nov-03 21:00N 29°44' W 095°01'4 8.2
2017-Nov-03 20:30N 29°46' W 095°05'1 2.7
2017-Nov-03 20:00N 29°45' W 095°07'0 0.0
2017-Nov-03 19:28N 29°45' W 095°07'0 0.0
2017-Nov-03 18:58N 29°45' W 095°07'0 0.0
2017-Nov-03 18:28N 29°45' W 095°07'0 0.0
2017-Nov-03 17:58N 29°45' W 095°07'0 0.0
2017-Nov-03 17:28N 29°45' W 095°07'0 0.0
2017-Nov-03 16:58N 29°45' W 095°07'0 0.0
2017-Nov-03 16:28N 29°45' W 095°07'0 0.0
2017-Nov-03 15:58N 29°45' W 095°07'0 0.0
2017-Nov-03 15:28N 29°45' W 095°07'0 0.0
2017-Nov-03 14:58N 29°45' W 095°07'0 0.0
2017-Nov-03 14:28N 29°45' W 095°07'0 0.0
2017-Nov-03 13:58N 29°45' W 095°07'0 0.0
2017-Nov-03 13:28N 29°45' W 095°07'0 0.0
2017-Nov-03 12:58N 29°45' W 095°07'0 0.0
2017-Nov-03 12:28N 29°45' W 095°07'0 0.0
2017-Nov-03 11:58N 29°45' W 095°07'0 0.0
2017-Nov-03 11:28N 29°45' W 095°07'0 0.0
2017-Nov-03 10:58N 29°45' W 095°07'0 0.0
2017-Nov-03 10:28N 29°45' W 095°07'0 0.0
2017-Nov-03 09:58N 29°45' W 095°07'0 0.0
2017-Nov-03 09:28N 29°45' W 095°07'0 0.0
2017-Nov-03 08:58N 29°45' W 095°07'0 0.0
2017-Nov-03 08:28N 29°45' W 095°07'0 0.0
2017-Nov-03 07:58N 29°45' W 095°07'0 0.0
2017-Nov-03 07:28N 29°45' W 095°07'0 0.0
2017-Nov-03 06:58N 29°45' W 095°07'0 0.0
2017-Nov-03 06:28N 29°45' W 095°07'0 0.0
2017-Nov-03 05:58N 29°45' W 095°07'0 0.0
2017-Nov-03 05:28N 29°45' W 095°07'0 0.0
2017-Nov-03 04:58N 29°45' W 095°07'0 0.0
2017-Nov-03 04:28N 29°45' W 095°07'0 0.0
2017-Nov-03 03:58N 29°45' W 095°07'0 0.0
2017-Nov-03 03:28N 29°45' W 095°07'0 0.0
2017-Nov-03 02:58N 29°45' W 095°07'0 0.0
2017-Nov-03 02:28N 29°45' W 095°07'0 0.0
2017-Nov-03 01:58N 29°45' W 095°07'0 0.0
2017-Nov-03 01:28N 29°45' W 095°07'0 0.0
2017-Nov-03 00:58N 29°45' W 095°07'0 0.0
2017-Nov-03 00:25N 29°45' W 095°07'0 0.0
2017-Nov-02 23:58N 29°45' W 095°07'0 0.0
2017-Nov-02 23:28N 29°45' W 095°07'0 0.0
2017-Nov-02 22:58N 29°45' W 095°07'0 0.0
2017-Nov-02 22:28N 29°45' W 095°07'0 0.0
2017-Nov-02 21:58N 29°45' W 095°07'0 0.0
2017-Nov-02 21:28N 29°45' W 095°07'0 0.0
2017-Nov-02 20:58N 29°45' W 095°07'0 0.0
2017-Nov-02 20:28N 29°45' W 095°07'0 0.0
2017-Nov-02 19:58N 29°45' W 095°07'0 0.0
2017-Nov-02 19:28N 29°45' W 095°07'0 0.0
2017-Nov-02 18:58N 29°45' W 095°07'0 0.0
2017-Nov-02 18:28N 29°45' W 095°07'0 0.0
2017-Nov-02 17:58N 29°45' W 095°07'0 0.0
2017-Nov-02 17:28N 29°45' W 095°07'0 0.0
2017-Nov-02 16:58N 29°45' W 095°07'0 0.0
2017-Nov-02 16:28N 29°45' W 095°07'0 0.0
2017-Nov-02 15:58N 29°45' W 095°07'0 0.0
2017-Nov-02 15:28N 29°45' W 095°07'0 0.0
2017-Nov-02 14:58N 29°45' W 095°07'0 0.0
2017-Nov-02 14:28N 29°45' W 095°07'0 0.0
2017-Nov-02 13:58N 29°45' W 095°07'0 0.0
2017-Nov-02 13:28N 29°45' W 095°07'0 0.0
2017-Nov-02 12:58N 29°45' W 095°07'0 0.0
2017-Nov-02 12:28N 29°45' W 095°07'0 0.0
2017-Nov-02 11:58N 29°45' W 095°07'0 0.0
2017-Nov-02 11:28N 29°45' W 095°07'0 0.0
2017-Nov-02 10:58N 29°45' W 095°07'0 0.0
2017-Nov-02 10:28N 29°45' W 095°07'0 0.0
2017-Nov-02 09:58N 29°45' W 095°07'0 0.0
2017-Nov-02 09:28N 29°45' W 095°07'0 0.0
2017-Nov-02 08:58N 29°45' W 095°07'0 0.0
2017-Nov-02 08:28N 29°45' W 095°07'0 0.0
2017-Nov-02 07:58N 29°45' W 095°07'0 0.0
2017-Nov-02 07:28N 29°45' W 095°07'0 0.0
2017-Nov-02 06:58N 29°45' W 095°07'0 0.0
2017-Nov-02 06:28N 29°45' W 095°07'0 0.0
2017-Nov-02 05:58N 29°45' W 095°07'0 0.0
2017-Nov-02 05:28N 29°45' W 095°07'0 0.0
2017-Nov-02 04:58N 29°45' W 095°07'  
Track history (hours):
 
Tides and Currents Weather Stations Pressure Air Temp Water Temp Dewpoint Dewpoint Depression Visibility Wind Speed Wind Dir Waves Ship Positions

Constantin S

Last reported at 2017-Nov-12 04:46 UTC. Time now 2017-Nov-23 18:37 UTC.
Position N 10°17' W 075°45'.
Warning: this ship's position is 11 days out of date.

Length 200 m; draft 9.1 m.

Type: Cargo ship. MMSI: 304872000.

Date/timePositionNaut miles runAvg speedWind from/ knotsBaromVisibWave heightAir tempDewpointWater temp
2017-Nov-12 04:46N 10°17' W 075°45'519.4
2017-Nov-12 04:30N 10°19' W 075°40'612.6
2017-Nov-12 04:00N 10°19' W 075°33'5 2.7
2017-Nov-12 02:14N 10°24' W 075°32'0 0.0
2017-Nov-12 01:50N 10°24' W 075°32'0 0.0
2017-Nov-12 01:26N 10°24' W 075°32'0 0.0
2017-Nov-12 00:56N 10°24' W 075°32'0 0.0
2017-Nov-12 00:14N 10°24' W 075°32'0 0.0
2017-Nov-11 23:56N 10°24' W 075°32'0 0.0
2017-Nov-11 23:26N 10°24' W 075°32'0 0.0
2017-Nov-11 22:56N 10°24' W 075°32'0 0.0
2017-Nov-11 22:20N 10°24' W 075°32'0 0.0
2017-Nov-11 21:56N 10°24' W 075°32'0 0.0
2017-Nov-11 21:14N 10°24' W 075°32'0 0.0
2017-Nov-11 20:56N 10°24' W 075°32'0 0.0
2017-Nov-11 20:26N 10°24' W 075°32'0 0.0
2017-Nov-11 19:59N 10°24' W 075°32'0 0.0
2017-Nov-11 19:26N 10°24' W 075°32'0 0.0
2017-Nov-11 18:56N 10°24' W 075°32'0 0.0
2017-Nov-11 18:29N 10°24' W 075°32'0 0.0
2017-Nov-11 17:56N 10°24' W 075°32'0 0.0
2017-Nov-11 17:26N 10°24' W 075°32'0 0.0
2017-Nov-11 16:53N 10°24' W 075°32'0 0.0
2017-Nov-11 16:20N 10°24' W 075°32'0 0.0
2017-Nov-11 15:56N 10°24' W 075°32'0 0.0
2017-Nov-11 15:29N 10°24' W 075°32'0 0.0
2017-Nov-11 14:56N 10°24' W 075°32'0 0.0
2017-Nov-11 14:26N 10°24' W 075°32'0 0.0
2017-Nov-11 13:56N 10°24' W 075°32'0 0.0
2017-Nov-11 13:26N 10°24' W 075°32'0 0.0
2017-Nov-11 12:50N 10°24' W 075°32'0 0.0
2017-Nov-11 12:26N 10°24' W 075°32'1 2.2
2017-Nov-11 12:00N 10°23' W 075°33'5 9.5
2017-Nov-11 11:30N 10°19' W 075°35'5 9.9
2017-Nov-11 11:00N 10°20' W 075°40'713.8
2017-Nov-11 10:31N 10°23' W 075°46'  
2017-Nov-03 23:22N 29°21' W 094°46'911.2
2017-Nov-03 22:32N 29°29' W 094°52'012.3
2017-Nov-03 22:30N 29°29' W 094°52'611.9
2017-Nov-03 22:00N 29°34' W 094°55'611.6
2017-Nov-03 21:30N 29°39' W 094°58'5 9.9
2017-Nov-03 21:00N 29°44' W 095°01'4 8.2
2017-Nov-03 20:30N 29°46' W 095°05'1 2.7
2017-Nov-03 20:00N 29°45' W 095°07'0 0.0
2017-Nov-03 19:28N 29°45' W 095°07'0 0.0
2017-Nov-03 18:58N 29°45' W 095°07'0 0.0
2017-Nov-03 18:28N 29°45' W 095°07'0 0.0
2017-Nov-03 17:58N 29°45' W 095°07'0 0.0
2017-Nov-03 17:28N 29°45' W 095°07'0 0.0
2017-Nov-03 16:58N 29°45' W 095°07'0 0.0
2017-Nov-03 16:28N 29°45' W 095°07'0 0.0
2017-Nov-03 15:58N 29°45' W 095°07'0 0.0
2017-Nov-03 15:28N 29°45' W 095°07'0 0.0
2017-Nov-03 14:58N 29°45' W 095°07'0 0.0
2017-Nov-03 14:28N 29°45' W 095°07'0 0.0
2017-Nov-03 13:58N 29°45' W 095°07'0 0.0
2017-Nov-03 13:28N 29°45' W 095°07'0 0.0
2017-Nov-03 12:58N 29°45' W 095°07'0 0.0
2017-Nov-03 12:28N 29°45' W 095°07'0 0.0
2017-Nov-03 11:58N 29°45' W 095°07'0 0.0
2017-Nov-03 11:28N 29°45' W 095°07'0 0.0
2017-Nov-03 10:58N 29°45' W 095°07'0 0.0
2017-Nov-03 10:28N 29°45' W 095°07'0 0.0
2017-Nov-03 09:58N 29°45' W 095°07'0 0.0
2017-Nov-03 09:28N 29°45' W 095°07'0 0.0
2017-Nov-03 08:58N 29°45' W 095°07'0 0.0
2017-Nov-03 08:28N 29°45' W 095°07'0 0.0
2017-Nov-03 07:58N 29°45' W 095°07'0 0.0
2017-Nov-03 07:28N 29°45' W 095°07'0 0.0
2017-Nov-03 06:58N 29°45' W 095°07'0 0.0
2017-Nov-03 06:28N 29°45' W 095°07'0 0.0
2017-Nov-03 05:58N 29°45' W 095°07'0 0.0
2017-Nov-03 05:28N 29°45' W 095°07'0 0.0
2017-Nov-03 04:58N 29°45' W 095°07'0 0.0
2017-Nov-03 04:28N 29°45' W 095°07'0 0.0
2017-Nov-03 03:58N 29°45' W 095°07'0 0.0
2017-Nov-03 03:28N 29°45' W 095°07'0 0.0
2017-Nov-03 02:58N 29°45' W 095°07'0 0.0
2017-Nov-03 02:28N 29°45' W 095°07'0 0.0
2017-Nov-03 01:58N 29°45' W 095°07'0 0.0
2017-Nov-03 01:28N 29°45' W 095°07'0 0.0
2017-Nov-03 00:58N 29°45' W 095°07'0 0.0
2017-Nov-03 00:25N 29°45' W 095°07'0 0.0
2017-Nov-02 23:58N 29°45' W 095°07'0 0.0
2017-Nov-02 23:28N 29°45' W 095°07'0 0.0
2017-Nov-02 22:58N 29°45' W 095°07'0 0.0
2017-Nov-02 22:28N 29°45' W 095°07'0 0.0
2017-Nov-02 21:58N 29°45' W 095°07'0 0.0
2017-Nov-02 21:28N 29°45' W 095°07'0 0.0
2017-Nov-02 20:58N 29°45' W 095°07'0 0.0
2017-Nov-02 20:28N 29°45' W 095°07'0 0.0
2017-Nov-02 19:58N 29°45' W 095°07'0 0.0
2017-Nov-02 19:28N 29°45' W 095°07'0 0.0
2017-Nov-02 18:58N 29°45' W 095°07'0 0.0
2017-Nov-02 18:28N 29°45' W 095°07'0 0.0
2017-Nov-02 17:58N 29°45' W 095°07'0 0.0
2017-Nov-02 17:28N 29°45' W 095°07'0 0.0
2017-Nov-02 16:58N 29°45' W 095°07'0 0.0
2017-Nov-02 16:28N 29°45' W 095°07'0 0.0
2017-Nov-02 15:58N 29°45' W 095°07'0 0.0
2017-Nov-02 15:28N 29°45' W 095°07'0 0.0
2017-Nov-02 14:58N 29°45' W 095°07'0 0.0
2017-Nov-02 14:28N 29°45' W 095°07'0 0.0
2017-Nov-02 13:58N 29°45' W 095°07'0 0.0
2017-Nov-02 13:28N 29°45' W 095°07'0 0.0
2017-Nov-02 12:58N 29°45' W 095°07'0 0.0
2017-Nov-02 12:28N 29°45' W 095°07'0 0.0
2017-Nov-02 11:58N 29°45' W 095°07'0 0.0
2017-Nov-02 11:28N 29°45' W 095°07'0 0.0
2017-Nov-02 10:58N 29°45' W 095°07'0 0.0
2017-Nov-02 10:28N 29°45' W 095°07'0 0.0
2017-Nov-02 09:58N 29°45' W 095°07'0 0.0
2017-Nov-02 09:28N 29°45' W 095°07'0 0.0
2017-Nov-02 08:58N 29°45' W 095°07'0 0.0
2017-Nov-02 08:28N 29°45' W 095°07'0 0.0
2017-Nov-02 07:58N 29°45' W 095°07'0 0.0
2017-Nov-02 07:28N 29°45' W 095°07'0 0.0
2017-Nov-02 06:58N 29°45' W 095°07'0 0.0
2017-Nov-02 06:28N 29°45' W 095°07'0 0.0
2017-Nov-02 05:58N 29°45' W 095°07'0 0.0
2017-Nov-02 05:28N 29°45' W 095°07'0 0.0
2017-Nov-02 04:58N 29°45' W 095°07'  

Dump ship's entire track history